createdAt,value
2018-03-26T00:00:31.578Z,20.00
2018-03-26T00:03:06.958Z,20.20
2018-03-26T00:05:43.904Z,20.40
2018-03-26T00:08:17.824Z,20.40
2018-03-26T00:10:52.772Z,20.60
2018-03-26T00:13:29.393Z,21.20
2018-03-26T00:16:05.604Z,21.30
2018-03-26T00:18:42.660Z,21.30
2018-03-26T00:21:17.582Z,20.90
2018-03-26T00:23:51.292Z,21.70
2018-03-26T00:26:28.435Z,22.60
2018-03-26T00:29:05.376Z,22.60
2018-03-26T00:31:40.312Z,22.60
2018-03-26T00:34:14.732Z,22.60
2018-03-26T00:36:50.215Z,23.00
2018-03-26T00:39:24.776Z,22.90
2018-03-26T00:41:58.312Z,23.70
2018-03-26T00:44:31.884Z,24.10
2018-03-26T00:47:07.868Z,24.10
2018-03-26T00:49:42.090Z,24.10
2018-03-26T00:52:17.280Z,24.70
2018-03-26T00:54:51.825Z,24.80
2018-03-26T00:57:28.325Z,24.90
2018-03-26T01:00:02.850Z,24.30
2018-03-26T01:02:38.880Z,24.80
2018-03-26T01:05:17.208Z,24.90
2018-03-26T01:07:53.411Z,25.60
2018-03-26T01:10:29.001Z,26.10
2018-03-26T01:13:06.935Z,26.10
2018-03-26T01:15:44.696Z,26.20
2018-03-26T01:18:20.211Z,26.60
2018-03-26T01:20:55.002Z,27.10
2018-03-26T01:23:28.767Z,27.00
2018-03-26T01:26:02.480Z,27.40
2018-03-26T01:28:37.282Z,27.80
2018-03-26T01:31:10.950Z,28.30
2018-03-26T01:33:45.680Z,28.80
2018-03-26T01:36:19.484Z,29.40
2018-03-26T01:38:53.689Z,30.20
2018-03-26T01:41:29.003Z,31.00
2018-03-26T01:44:04.599Z,31.10
2018-03-26T01:46:44.714Z,32.80
2018-03-26T01:49:18.312Z,33.50
2018-03-26T01:51:53.837Z,34.20
2018-03-26T01:54:28.758Z,34.20
2018-03-26T01:57:02.383Z,34.60
2018-03-26T01:59:37.713Z,37.70
2018-03-26T02:02:11.563Z,37.60
2018-03-26T02:04:46.239Z,39.90
2018-03-26T02:07:19.811Z,40.90
2018-03-26T02:09:54.653Z,43.50
2018-03-26T02:12:28.272Z,43.40
2018-03-26T02:15:03.707Z,43.70
2018-03-26T02:17:37.457Z,44.60
2018-03-26T02:20:11.233Z,45.30
2018-03-26T02:22:44.957Z,46.40
2018-03-26T02:25:19.531Z,48.30
2018-03-26T02:27:54.285Z,50.40
2018-03-26T02:30:27.980Z,51.60
2018-03-26T02:33:02.838Z,52.60
2018-03-26T02:35:37.479Z,53.90
2018-03-26T02:38:11.203Z,54.90
2018-03-26T02:40:45.847Z,55.50
2018-03-26T02:43:19.549Z,55.70
2018-03-26T02:45:53.338Z,56.10
2018-03-26T02:48:27.141Z,57.20
2018-03-26T02:51:00.997Z,57.00
2018-03-26T02:53:35.524Z,57.20
2018-03-26T02:56:09.343Z,58.30
2018-03-26T02:58:43.242Z,59.80
2018-03-26T03:01:17.805Z,60.30
2018-03-26T03:03:51.561Z,61.20
2018-03-26T03:06:25.301Z,61.60
2018-03-26T03:08:59.124Z,62.80
2018-03-26T03:11:34.034Z,65.10
2018-03-26T03:14:07.868Z,66.30
2018-03-26T03:16:42.138Z,67.10
2018-03-26T03:19:15.758Z,68.10
2018-03-26T03:21:50.320Z,68.00
2018-03-26T03:24:24.033Z,67.90
2018-03-26T03:26:57.845Z,68.30
2018-03-26T03:29:31.597Z,68.70
2018-03-26T03:32:06.152Z,69.50
2018-03-26T03:34:41.156Z,70.50
2018-03-26T03:37:14.723Z,71.70
2018-03-26T03:39:48.849Z,72.30
2018-03-26T03:42:22.597Z,74.00
2018-03-26T03:44:56.314Z,76.70
2018-03-26T03:47:30.041Z,77.30
2018-03-26T03:50:04.737Z,78.00
2018-03-26T03:52:39.257Z,79.90
2018-03-26T03:55:12.834Z,80.60
2018-03-26T03:57:46.544Z,80.50
2018-03-26T04:00:21.566Z,81.50
2018-03-26T04:02:56.031Z,83.00
2018-03-26T04:05:31.339Z,84.20
2018-03-26T04:08:04.904Z,85.70
2018-03-26T04:10:40.322Z,86.70
2018-03-26T04:13:14.094Z,87.50
2018-03-26T04:15:47.829Z,88.50
2018-03-26T04:18:21.721Z,88.70
2018-03-26T04:20:56.180Z,88.80
2018-03-26T04:23:30.023Z,89.50
2018-03-26T04:26:03.701Z,89.10
2018-03-26T04:28:37.792Z,89.80
2018-03-26T04:31:11.502Z,90.00
2018-03-26T04:33:45.092Z,89.60
2018-03-26T04:36:19.252Z,90.10
2018-03-26T04:38:53.704Z,90.10
2018-03-26T04:41:27.490Z,90.10
2018-03-26T04:44:01.316Z,90.10
2018-03-26T04:46:35.371Z,90.50
2018-03-26T04:49:09.168Z,90.90
2018-03-26T04:51:42.836Z,91.10
2018-03-26T04:54:17.732Z,90.90
2018-03-26T04:56:51.842Z,91.20
2018-03-26T04:59:26.035Z,91.40
2018-03-26T05:01:59.593Z,91.40
2018-03-26T05:04:33.160Z,91.50
2018-03-26T05:07:07.818Z,91.80
2018-03-26T05:09:41.979Z,91.90
2018-03-26T05:12:15.728Z,92.50
2018-03-26T05:14:50.967Z,92.70
2018-03-26T05:17:25.751Z,92.80
2018-03-26T05:19:59.486Z,92.90
2018-03-26T05:22:33.251Z,93.00
2018-03-26T05:25:06.991Z,93.10
2018-03-26T05:27:41.964Z,93.10
2018-03-26T05:30:16.620Z,93.10
2018-03-26T05:32:51.721Z,93.30
2018-03-26T05:35:25.496Z,93.30
2018-03-26T05:38:00.767Z,93.60
2018-03-26T05:40:35.340Z,93.60
2018-03-26T05:43:09.679Z,94.00
2018-03-26T05:45:44.263Z,94.00
2018-03-26T05:48:18.011Z,93.90
2018-03-26T05:50:51.741Z,93.90
2018-03-26T05:53:26.043Z,93.70
2018-03-26T05:55:59.669Z,94.10
2018-03-26T05:58:33.445Z,94.20
2018-03-26T06:01:07.823Z,94.30
2018-03-26T06:03:41.534Z,94.60
2018-03-26T06:06:16.136Z,94.10
2018-03-26T06:08:49.957Z,94.40
2018-03-26T06:11:23.661Z,94.00
2018-03-26T06:13:57.509Z,94.00
2018-03-26T06:16:31.274Z,93.80
2018-03-26T06:19:05.243Z,93.70
2018-03-26T06:21:38.986Z,93.70
2018-03-26T06:24:13.648Z,93.70
2018-03-26T06:26:48.688Z,93.70
2018-03-26T06:29:22.975Z,93.70
2018-03-26T06:31:57.431Z,94.20
2018-03-26T06:34:32.257Z,94.20
2018-03-26T06:40:05.950Z,94.50
2018-03-26T06:42:39.813Z,94.00
2018-03-26T06:45:14.195Z,93.30
2018-03-26T06:47:49.497Z,93.30
2018-03-26T06:50:23.210Z,92.60
2018-03-26T06:52:57.869Z,92.40
2018-03-26T06:55:33.739Z,92.50
2018-03-26T06:58:09.066Z,92.10
2018-03-26T07:00:45.531Z,92.10
2018-03-26T07:03:20.001Z,91.70
2018-03-26T07:05:54.853Z,91.10
2018-03-26T07:08:30.233Z,91.10
2018-03-26T07:11:07.943Z,91.50
2018-03-26T07:13:43.844Z,91.50
2018-03-26T07:16:18.258Z,91.60
2018-03-26T07:18:52.011Z,91.60
2018-03-26T07:21:25.742Z,91.80
2018-03-26T07:23:59.514Z,91.20
2018-03-26T07:26:33.193Z,90.30
2018-03-26T07:29:07.397Z,90.00
2018-03-26T07:31:41.107Z,88.30
2018-03-26T07:34:14.851Z,87.00
2018-03-26T07:36:48.614Z,85.70
2018-03-26T07:39:22.324Z,86.00
2018-03-26T07:41:56.688Z,85.70
2018-03-26T07:44:30.512Z,85.40
2018-03-26T07:47:05.363Z,86.50
2018-03-26T07:49:39.055Z,89.20
2018-03-26T07:52:14.871Z,88.70
2018-03-26T07:54:49.435Z,88.70
2018-03-26T07:57:24.273Z,86.80
2018-03-26T07:59:58.056Z,86.40
2018-03-26T08:02:31.848Z,85.00
2018-03-26T08:05:05.823Z,83.00
2018-03-26T08:07:40.030Z,79.50
2018-03-26T08:10:13.922Z,75.90
2018-03-26T08:12:49.138Z,75.00
2018-03-26T08:15:23.741Z,75.00
2018-03-26T08:18:00.260Z,74.90
2018-03-26T08:20:35.208Z,74.90
2018-03-26T08:23:11.233Z,74.80
2018-03-26T08:25:45.854Z,78.00
2018-03-26T08:28:20.588Z,79.10
2018-03-26T08:30:55.010Z,81.40
2018-03-26T08:33:29.661Z,81.00
2018-03-26T08:36:04.106Z,81.10
2018-03-26T08:38:37.869Z,79.40
2018-03-26T08:41:13.199Z,77.80
2018-03-26T08:43:50.801Z,77.80
2018-03-26T08:46:25.624Z,77.70
2018-03-26T08:49:01.108Z,72.30
2018-03-26T08:51:35.108Z,72.30
2018-03-26T08:54:08.743Z,72.60
2018-03-26T08:56:42.559Z,74.80
2018-03-26T08:59:17.165Z,72.40
2018-03-26T09:01:50.789Z,71.40
2018-03-26T09:04:24.553Z,71.10
2018-03-26T09:07:01.024Z,73.40
2018-03-26T09:09:35.589Z,72.30
2018-03-26T09:12:10.337Z,74.60
2018-03-26T09:14:44.878Z,74.60
2018-03-26T09:17:18.646Z,74.50
2018-03-26T09:19:53.617Z,75.50
2018-03-26T09:22:29.010Z,73.90
2018-03-26T09:25:03.768Z,72.60
2018-03-26T09:27:37.692Z,70.90
2018-03-26T09:30:11.353Z,71.80
2018-03-26T09:32:45.140Z,70.60
2018-03-26T09:35:18.957Z,70.10
2018-03-26T09:40:30.909Z,68.80
2018-03-26T09:43:04.580Z,68.40
2018-03-26T09:48:18.924Z,66.20
2018-03-26T09:50:53.536Z,66.00
2018-03-26T09:53:28.153Z,66.70
2018-03-26T09:56:01.857Z,65.90
2018-03-26T09:58:35.792Z,63.90
2018-03-26T10:01:16.568Z,60.70
2018-03-26T10:03:52.135Z,60.30
2018-03-26T10:06:27.400Z,59.30
2018-03-26T10:09:00.956Z,59.70
2018-03-26T10:11:36.675Z,58.00
2018-03-26T10:14:13.445Z,57.30
2018-03-26T10:16:48.792Z,58.00
2018-03-26T10:19:23.558Z,60.50
2018-03-26T10:21:58.737Z,59.70
2018-03-26T10:24:33.949Z,57.10
2018-03-26T10:27:07.566Z,57.10
2018-03-26T10:29:41.860Z,61.60
2018-03-26T10:32:16.381Z,58.40
2018-03-26T10:34:50.942Z,54.80
2018-03-26T10:37:26.374Z,51.40
2018-03-26T10:40:01.008Z,51.50
2018-03-26T10:42:39.639Z,54.70
2018-03-26T10:45:14.976Z,54.70
2018-03-26T10:47:48.944Z,52.20
2018-03-26T10:50:22.959Z,49.20
2018-03-26T10:52:57.606Z,47.80
2018-03-26T10:55:33.977Z,47.40
2018-03-26T10:58:08.330Z,46.70
2018-03-26T11:00:43.609Z,45.20
2018-03-26T11:03:17.879Z,45.30
2018-03-26T11:05:53.399Z,46.20
2018-03-26T11:08:27.961Z,46.30
2018-03-26T11:11:02.029Z,47.50
2018-03-26T11:13:36.898Z,46.80
2018-03-26T11:16:10.704Z,47.00
2018-03-26T11:18:44.474Z,42.00
2018-03-26T11:21:18.215Z,45.90
2018-03-26T11:23:52.874Z,46.20
2018-03-26T11:26:27.077Z,45.80
2018-03-26T11:29:01.865Z,43.80
2018-03-26T11:31:36.467Z,40.80
2018-03-26T11:34:10.245Z,40.80
2018-03-26T11:36:44.553Z,40.80
2018-03-26T11:39:19.248Z,38.90
2018-03-26T11:41:53.872Z,36.90
2018-03-26T11:44:28.351Z,37.30
2018-03-26T11:47:02.363Z,37.60
2018-03-26T11:49:36.072Z,40.40
2018-03-26T11:52:10.065Z,38.50
2018-03-26T11:54:43.898Z,36.20
2018-03-26T11:57:17.976Z,38.00
2018-03-26T11:59:54.097Z,35.60
2018-03-26T12:02:28.498Z,34.80
2018-03-26T12:05:07.039Z,35.30
2018-03-26T12:07:42.213Z,36.00
2018-03-26T12:10:16.937Z,38.20
2018-03-26T12:12:51.752Z,35.90
2018-03-26T12:15:26.135Z,37.30
2018-03-26T12:18:02.337Z,38.80
2018-03-26T12:20:48.255Z,40.80
2018-03-26T12:23:33.687Z,40.80
2018-03-26T12:26:12.493Z,38.00
2018-03-26T12:28:58.258Z,38.10
2018-03-26T12:31:32.338Z,35.60
2018-03-26T12:34:18.888Z,38.10
2018-03-26T12:36:54.352Z,37.40
2018-03-26T12:39:29.339Z,39.40
2018-03-26T12:42:05.380Z,40.40
2018-03-26T12:44:50.961Z,43.20
2018-03-26T12:47:25.505Z,45.90
2018-03-26T12:50:00.125Z,49.50
2018-03-26T12:52:45.671Z,50.50
2018-03-26T12:55:19.306Z,50.90
2018-03-26T12:58:05.571Z,49.40
2018-03-26T13:00:39.644Z,46.40
2018-03-26T13:03:14.372Z,48.30
2018-03-26T13:05:48.199Z,46.90
2018-03-26T13:08:22.750Z,47.80
2018-03-26T13:10:57.646Z,47.70
2018-03-26T13:13:31.515Z,48.10
2018-03-26T13:16:06.136Z,45.70
2018-03-26T13:18:41.456Z,45.30
2018-03-26T13:21:16.088Z,47.10
2018-03-26T13:23:49.751Z,45.50
2018-03-26T13:26:23.466Z,45.70
2018-03-26T13:28:58.057Z,45.70
2018-03-26T13:31:31.885Z,45.70
2018-03-26T13:34:07.470Z,45.30
2018-03-26T13:36:43.401Z,42.50
2018-03-26T13:39:18.627Z,42.20
2018-03-26T13:41:53.876Z,38.90
2018-03-26T13:44:28.942Z,36.70
2018-03-26T13:47:02.541Z,35.10
2018-03-26T13:49:37.817Z,33.80
2018-03-26T13:52:13.705Z,33.80
2018-03-26T13:54:48.458Z,34.10
2018-03-26T13:57:23.124Z,29.20
2018-03-26T13:59:56.968Z,27.50
2018-03-26T14:02:31.805Z,30.30
2018-03-26T14:05:06.337Z,30.30
2018-03-26T14:07:43.538Z,27.90
2018-03-26T14:10:29.359Z,28.70
2018-03-26T14:13:16.228Z,33.00
2018-03-26T14:16:01.999Z,33.00
2018-03-26T14:18:36.116Z,30.20
2018-03-26T14:21:11.607Z,25.10
2018-03-26T14:23:46.652Z,20.60
2018-03-26T14:26:21.071Z,23.70
2018-03-26T14:28:55.162Z,23.40
2018-03-26T14:31:29.644Z,23.70
2018-03-26T14:34:04.170Z,24.00
2018-03-26T14:36:37.935Z,21.50
2018-03-26T14:39:11.631Z,19.30
2018-03-26T14:41:47.056Z,21.10
2018-03-26T14:44:21.789Z,25.00
2018-03-26T14:46:56.948Z,23.70
2018-03-26T14:49:31.766Z,23.70
2018-03-26T14:52:08.337Z,26.20
2018-03-26T14:54:42.012Z,26.80
2018-03-26T14:57:16.617Z,25.50
2018-03-26T14:59:51.018Z,26.10
2018-03-26T15:02:25.086Z,27.80
2018-03-26T15:04:58.749Z,28.20
2018-03-26T15:07:34.300Z,24.50
2018-03-26T15:10:13.466Z,22.80
2018-03-26T15:12:47.159Z,22.70
2018-03-26T15:15:20.895Z,24.70
2018-03-26T15:17:54.640Z,26.10
2018-03-26T15:20:28.382Z,27.90
2018-03-26T15:23:02.414Z,30.00
2018-03-26T15:25:36.797Z,31.40
2018-03-26T15:28:10.554Z,35.00
2018-03-26T15:30:45.046Z,36.90
2018-03-26T15:33:19.500Z,35.70
2018-03-26T15:35:53.151Z,35.70
2018-03-26T15:38:26.936Z,35.80
2018-03-26T15:41:00.737Z,35.60
2018-03-26T15:43:34.599Z,35.40
2018-03-26T15:46:09.512Z,38.70
2018-03-26T15:48:44.268Z,39.00
2018-03-26T15:51:17.936Z,41.60
2018-03-26T15:53:51.644Z,42.90
2018-03-26T15:56:26.289Z,42.10
2018-03-26T15:58:59.992Z,41.90
2018-03-26T16:01:34.754Z,41.10
2018-03-26T16:04:09.089Z,40.90
2018-03-26T16:06:42.915Z,41.80
2018-03-26T16:09:17.642Z,42.40
2018-03-26T16:11:51.325Z,43.20
2018-03-26T16:14:25.065Z,43.80
2018-03-26T16:16:58.647Z,41.00
2018-03-26T16:19:32.880Z,43.10
2018-03-26T16:22:07.123Z,42.50
2018-03-26T16:24:41.471Z,42.00
2018-03-26T16:27:15.874Z,40.90
2018-03-26T16:29:50.193Z,43.30
2018-03-26T16:32:24.795Z,43.40
2018-03-26T16:34:58.359Z,42.60
2018-03-26T16:37:32.887Z,42.90
2018-03-26T16:40:06.561Z,40.30
2018-03-26T16:42:44.906Z,41.90
2018-03-26T16:45:19.297Z,42.30
2018-03-26T16:47:53.791Z,43.10
2018-03-26T16:50:28.391Z,43.10
2018-03-26T16:53:02.141Z,43.10
2018-03-26T16:55:37.577Z,43.10
2018-03-26T16:58:11.194Z,42.90
2018-03-26T17:00:45.282Z,42.80
2018-03-26T17:03:20.480Z,42.60
2018-03-26T17:05:54.160Z,42.20
2018-03-26T17:08:28.917Z,41.60
2018-03-26T17:11:03.328Z,40.50
2018-03-26T17:13:37.906Z,40.60
2018-03-26T17:16:12.507Z,42.10
2018-03-26T17:18:48.324Z,41.90
2018-03-26T17:21:23.000Z,42.60
2018-03-26T17:23:57.492Z,43.20
2018-03-26T17:26:31.739Z,44.40
2018-03-26T17:29:05.902Z,45.60
2018-03-26T17:31:40.487Z,47.00
2018-03-26T17:34:14.193Z,48.50
2018-03-26T17:36:47.940Z,49.90
2018-03-26T17:39:21.718Z,51.60
2018-03-26T17:41:56.478Z,53.30
2018-03-26T17:44:32.418Z,56.30
2018-03-26T17:47:06.814Z,56.30
2018-03-26T17:49:40.497Z,59.20
2018-03-26T17:52:15.010Z,60.50
2018-03-26T17:54:49.212Z,60.50
2018-03-26T17:57:23.109Z,62.90
2018-03-26T17:59:56.924Z,64.40
2018-03-26T18:02:30.852Z,68.30
2018-03-26T18:05:08.212Z,69.10
2018-03-26T18:07:41.946Z,70.00
2018-03-26T18:10:15.609Z,70.60
2018-03-26T18:12:50.024Z,69.90
2018-03-26T18:15:26.400Z,71.00
2018-03-26T18:18:00.134Z,71.90
2018-03-26T18:20:35.758Z,73.30
2018-03-26T18:26:10.969Z,77.50
2018-03-26T18:28:44.769Z,77.80
2018-03-26T18:31:22.635Z,78.90
2018-03-26T18:33:56.398Z,82.70
2018-03-26T18:36:31.655Z,85.00
2018-03-26T18:39:06.360Z,87.30
2018-03-26T18:41:41.455Z,88.30
2018-03-26T18:44:15.175Z,90.30
2018-03-26T18:46:48.900Z,90.70
2018-03-26T18:49:23.407Z,91.30
2018-03-26T18:51:57.310Z,91.30
2018-03-26T18:54:31.034Z,91.90
2018-03-26T18:57:04.644Z,92.00
2018-03-26T18:59:38.311Z,92.30
2018-03-26T19:02:12.096Z,92.70
2018-03-26T19:04:47.333Z,92.60
2018-03-26T19:07:23.141Z,92.90
2018-03-26T19:09:56.790Z,93.50
2018-03-26T19:12:30.759Z,93.70
2018-03-26T19:15:04.491Z,94.20
2018-03-26T19:17:38.231Z,94.20
2018-03-26T19:20:12.233Z,94.00
2018-03-26T19:22:47.335Z,94.10
2018-03-26T19:25:21.937Z,94.00
2018-03-26T19:27:56.168Z,94.30
2018-03-26T19:30:30.289Z,94.30
2018-03-26T19:33:05.806Z,94.40
2018-03-26T19:35:39.660Z,95.00
2018-03-26T19:38:13.400Z,94.90
2018-03-26T19:40:48.051Z,95.10
2018-03-26T19:43:22.442Z,95.50
2018-03-26T19:45:56.192Z,95.50
2018-03-26T19:48:30.541Z,95.50
2018-03-26T19:51:04.326Z,95.70
2018-03-26T19:53:38.380Z,95.70
2018-03-26T19:56:12.016Z,95.90
2018-03-26T19:58:45.771Z,96.20
2018-03-26T20:01:19.630Z,96.30
2018-03-26T20:03:54.004Z,95.70
2018-03-26T20:06:28.638Z,95.70
2018-03-26T20:09:02.443Z,95.60
2018-03-26T20:11:36.313Z,95.50
2018-03-26T20:14:10.080Z,95.60
2018-03-26T20:16:43.859Z,95.70
2018-03-26T20:19:18.421Z,96.00
2018-03-26T20:21:52.271Z,95.90
2018-03-26T20:24:26.822Z,95.90
2018-03-26T20:27:01.576Z,95.90
2018-03-26T20:29:36.425Z,95.90
2018-03-26T20:32:10.245Z,95.90
2018-03-26T20:34:43.956Z,95.90
2018-03-26T20:37:18.091Z,95.90
2018-03-26T20:39:52.984Z,95.90
2018-03-26T20:42:27.769Z,95.90
2018-03-26T20:45:01.734Z,96.20
2018-03-26T20:47:35.585Z,96.20
2018-03-26T20:50:10.273Z,96.10
2018-03-26T20:52:44.134Z,96.40
2018-03-26T20:55:18.608Z,96.30
2018-03-26T20:57:54.029Z,96.30
2018-03-26T21:00:33.318Z,96.10
2018-03-26T21:03:08.735Z,95.90
2018-03-26T21:05:43.527Z,95.80
2018-03-26T21:08:17.215Z,96.20
2018-03-26T21:10:50.925Z,96.20
2018-03-26T21:13:26.598Z,96.30
2018-03-26T21:16:01.515Z,96.50
2018-03-26T21:18:35.788Z,96.60
2018-03-26T21:21:10.161Z,97.10
2018-03-26T21:23:44.647Z,97.40
2018-03-26T21:26:18.502Z,97.40
2018-03-26T21:28:52.248Z,97.30
2018-03-26T21:31:27.391Z,97.00
2018-03-26T21:34:01.285Z,97.00
2018-03-26T21:36:35.712Z,97.10
2018-03-26T21:39:09.761Z,97.10
2018-03-26T21:41:43.367Z,97.40
2018-03-26T21:44:17.133Z,97.20
2018-03-26T21:46:50.848Z,97.30
2018-03-26T21:49:24.582Z,97.40
2018-03-26T21:51:58.406Z,97.30
2018-03-26T21:54:33.640Z,97.70
2018-03-26T21:57:07.268Z,97.80
2018-03-26T21:59:42.259Z,97.90
2018-03-26T22:02:16.784Z,98.20
2018-03-26T22:04:50.364Z,98.60
2018-03-26T22:07:25.198Z,98.70
2018-03-26T22:09:58.783Z,98.70
2018-03-26T22:12:32.598Z,99.00
2018-03-26T22:15:06.457Z,99.00
2018-03-26T22:17:42.434Z,99.00
2018-03-26T22:20:15.962Z,99.00
2018-03-26T22:22:50.385Z,99.20
2018-03-26T22:25:24.227Z,98.90
2018-03-26T22:27:59.432Z,98.60
2018-03-26T22:30:33.918Z,98.70
2018-03-26T22:33:07.803Z,98.60
2018-03-26T22:35:41.477Z,98.70
2018-03-26T22:38:15.319Z,98.70
2018-03-26T22:40:49.074Z,98.60
2018-03-26T22:43:24.367Z,98.70
2018-03-26T22:45:58.035Z,98.90
2018-03-26T22:48:31.646Z,98.90
2018-03-26T22:51:05.848Z,98.80
2018-03-26T22:53:40.609Z,98.80
2018-03-26T22:56:15.100Z,98.90
2018-03-26T22:58:48.856Z,98.90
2018-03-26T23:01:23.429Z,98.90
2018-03-26T23:03:57.081Z,98.90
2018-03-26T23:06:31.961Z,98.90
2018-03-26T23:09:06.050Z,98.70
2018-03-26T23:11:40.753Z,98.90
2018-03-26T23:14:15.064Z,98.90
2018-03-26T23:16:50.852Z,99.10
2018-03-26T23:19:24.610Z,98.90
2018-03-26T23:21:58.249Z,98.90
2018-03-26T23:24:32.064Z,98.90
2018-03-26T23:27:06.300Z,98.90
2018-03-26T23:29:41.443Z,98.90
2018-03-26T23:32:15.968Z,98.90
2018-03-26T23:34:49.878Z,98.90
2018-03-26T23:37:25.364Z,99.10
2018-03-26T23:39:59.089Z,98.90
2018-03-26T23:42:33.630Z,98.90
2018-03-26T23:45:07.423Z,98.90
2018-03-26T23:47:42.695Z,99.20
2018-03-26T23:50:17.218Z,99.20
2018-03-26T23:52:51.338Z,99.10
2018-03-26T23:55:25.349Z,99.20
2018-03-26T23:57:59.683Z,99.20
